sensor_id;sensor_type;location;lat;lon;timestamp;pressure;altitude;pressure_sealevel;temperature;humidity
62237;BME280;69163;48.778;2.308;2023-05-17T00:00:05;101715.27;;;18.68;35.15
62237;BME280;69163;48.778;2.308;2023-05-17T00:02:29;101718.56;;;18.69;35.14
62237;BME280;69163;48.778;2.308;2023-05-17T00:04:54;101717.01;;;18.69;35.11
62237;BME280;69163;48.778;2.308;2023-05-17T00:07:19;101717.01;;;18.72;35.00
62237;BME280;69163;48.778;2.308;2023-05-17T00:09:44;101717.24;;;18.65;35.07
62237;BME280;69163;48.778;2.308;2023-05-17T00:12:09;101716.39;;;18.59;35.04
62237;BME280;69163;48.778;2.308;2023-05-17T00:14:35;101719.03;;;18.71;34.92
62237;BME280;69163;48.778;2.308;2023-05-17T00:17:00;101718.48;;;18.69;34.95
62237;BME280;69163;48.778;2.308;2023-05-17T00:19:25;101710.50;;;18.67;34.93
62237;BME280;69163;48.778;2.308;2023-05-17T00:21:51;101713.25;;;18.52;34.80
62237;BME280;69163;48.778;2.308;2023-05-17T00:24:15;101713.63;;;18.46;34.81
62237;BME280;69163;48.778;2.308;2023-05-17T00:26:41;101713.22;;;18.63;34.84
62237;BME280;69163;48.778;2.308;2023-05-17T00:29:06;101714.51;;;18.08;34.89
62237;BME280;69163;48.778;2.308;2023-05-17T00:31:31;101717.05;;;18.63;34.80
62237;BME280;69163;48.778;2.308;2023-05-17T00:33:57;101716.48;;;18.63;34.79
62237;BME280;69163;48.778;2.308;2023-05-17T00:36:22;101716.22;;;18.63;34.78
62237;BME280;69163;48.778;2.308;2023-05-17T00:38:47;101715.51;;;18.61;34.76
62237;BME280;69163;48.778;2.308;2023-05-17T00:41:12;101713.97;;;18.40;34.76
62237;BME280;69163;48.778;2.308;2023-05-17T00:43:37;101713.53;;;18.70;34.62
62237;BME280;69163;48.778;2.308;2023-05-17T00:46:03;101716.25;;;18.79;34.49
62237;BME280;69163;48.778;2.308;2023-05-17T00:48:28;101720.99;;;18.74;34.51
62237;BME280;69163;48.778;2.308;2023-05-17T00:50:53;101716.90;;;18.54;34.45
62237;BME280;69163;48.778;2.308;2023-05-17T00:53:18;101716.78;;;18.81;34.41
62237;BME280;69163;48.778;2.308;2023-05-17T00:55:44;101718.04;;;18.64;34.28
62237;BME280;69163;48.778;2.308;2023-05-17T00:58:09;101719.16;;;18.39;34.28
62237;BME280;69163;48.778;2.308;2023-05-17T01:00:34;101716.23;;;18.96;34.15
62237;BME280;69163;48.778;2.308;2023-05-17T01:03:00;101715.52;;;18.87;33.93
62237;BME280;69163;48.778;2.308;2023-05-17T01:05:24;101715.62;;;18.77;34.07
62237;BME280;69163;48.778;2.308;2023-05-17T01:07:50;101712.69;;;19.08;33.90
62237;BME280;69163;48.778;2.308;2023-05-17T01:10:15;101713.67;;;18.73;34.11
62237;BME280;69163;48.778;2.308;2023-05-17T01:12:52;101717.09;;;19.09;33.87
62237;BME280;69163;48.778;2.308;2023-05-17T01:15:12;101716.05;;;19.20;33.70
62237;BME280;69163;48.778;2.308;2023-05-17T01:17:40;101709.33;;;19.10;33.78
62237;BME280;69163;48.778;2.308;2023-05-17T01:20:01;101709.09;;;18.93;33.72
62237;BME280;69163;48.778;2.308;2023-05-17T01:22:30;101708.38;;;19.41;33.71
62237;BME280;69163;48.778;2.308;2023-05-17T01:24:52;101705.64;;;18.94;33.67
62237;BME280;69163;48.778;2.308;2023-05-17T01:27:12;101703.74;;;18.96;33.56
62237;BME280;69163;48.778;2.308;2023-05-17T01:29:37;101703.19;;;19.06;33.77
62237;BME280;69163;48.778;2.308;2023-05-17T01:32:03;101708.21;;;18.88;33.68
62237;BME280;69163;48.778;2.308;2023-05-17T01:34:27;101708.57;;;18.79;33.79
62237;BME280;69163;48.778;2.308;2023-05-17T01:36:52;101708.34;;;19.06;33.81
62237;BME280;69163;48.778;2.308;2023-05-17T01:39:17;101706.73;;;18.78;33.87
62237;BME280;69163;48.778;2.308;2023-05-17T01:41:48;101703.72;;;19.44;33.71
62237;BME280;69163;48.778;2.308;2023-05-17T01:44:17;101704.51;;;19.11;33.79
62237;BME280;69163;48.778;2.308;2023-05-17T01:46:38;101704.51;;;19.11;33.77
62237;BME280;69163;48.778;2.308;2023-05-17T01:49:05;101702.17;;;19.08;33.79
62237;BME280;69163;48.778;2.308;2023-05-17T01:51:26;101702.62;;;18.88;33.72
62237;BME280;69163;48.778;2.308;2023-05-17T01:53:54;101701.01;;;19.03;33.82
62237;BME280;69163;48.778;2.308;2023-05-17T01:56:18;101701.89;;;18.83;33.81
62237;BME280;69163;48.778;2.308;2023-05-17T01:58:45;101700.44;;;18.87;33.68
62237;BME280;69163;48.778;2.308;2023-05-17T02:01:05;101702.91;;;19.05;33.80
62237;BME280;69163;48.778;2.308;2023-05-17T02:03:29;101701.31;;;19.04;33.75
62237;BME280;69163;48.778;2.308;2023-05-17T02:05:54;101701.84;;;19.02;33.75
62237;BME280;69163;48.778;2.308;2023-05-17T02:08:20;101700.65;;;19.02;33.79
62237;BME280;69163;48.778;2.308;2023-05-17T02:10:45;101697.82;;;18.94;33.81
62237;BME280;69163;48.778;2.308;2023-05-17T02:13:10;101698.65;;;19.06;33.70
62237;BME280;69163;48.778;2.308;2023-05-17T02:15:36;101697.23;;;18.79;33.71
62237;BME280;69163;48.778;2.308;2023-05-17T02:18:01;101697.98;;;18.97;33.81
62237;BME280;69163;48.778;2.308;2023-05-17T02:20:26;101700.04;;;18.97;33.75
62237;BME280;69163;48.778;2.308;2023-05-17T02:22:51;101703.54;;;19.02;33.71
62237;BME280;69163;48.778;2.308;2023-05-17T02:25:17;101706.83;;;18.98;33.74
62237;BME280;69163;48.778;2.308;2023-05-17T02:27:41;101706.75;;;19.00;33.75
62237;BME280;69163;48.778;2.308;2023-05-17T02:30:08;101712.54;;;18.99;33.73
62237;BME280;69163;48.778;2.308;2023-05-17T02:32:32;101714.41;;;18.93;33.77
62237;BME280;69163;48.778;2.308;2023-05-17T02:34:57;101714.22;;;18.88;33.86
62237;BME280;69163;48.778;2.308;2023-05-17T02:37:23;101716.59;;;18.85;33.92
62237;BME280;69163;48.778;2.308;2023-05-17T02:39:47;101717.77;;;18.90;33.78
62237;BME280;69163;48.778;2.308;2023-05-17T02:42:13;101726.63;;;18.92;33.79
62237;BME280;69163;48.778;2.308;2023-05-17T02:44:38;101722.70;;;18.91;33.76
62237;BME280;69163;48.778;2.308;2023-05-17T02:47:03;101724.32;;;18.69;33.74
62237;BME280;69163;48.778;2.308;2023-05-17T02:49:29;101722.12;;;19.08;33.82
62237;BME280;69163;48.778;2.308;2023-05-17T02:51:54;101719.01;;;18.85;33.81
62237;BME280;69163;48.778;2.308;2023-05-17T02:54:19;101723.32;;;18.60;33.85
62237;BME280;69163;48.778;2.308;2023-05-17T02:56:44;101723.28;;;18.78;33.90
62237;BME280;69163;48.778;2.308;2023-05-17T02:59:09;101724.87;;;18.62;34.46
62237;BME280;69163;48.778;2.308;2023-05-17T03:01:35;101724.39;;;18.89;35.47
62237;BME280;69163;48.778;2.308;2023-05-17T03:04:00;101724.64;;;18.89;35.85
62237;BME280;69163;48.778;2.308;2023-05-17T03:06:26;101725.96;;;18.88;35.92
62237;BME280;69163;48.778;2.308;2023-05-17T03:08:50;101725.56;;;18.92;35.92
62237;BME280;69163;48.778;2.308;2023-05-17T03:11:16;101728.56;;;18.85;36.43
62237;BME280;69163;48.778;2.308;2023-05-17T03:13:41;101728.51;;;18.59;36.51
62237;BME280;69163;48.778;2.308;2023-05-17T03:16:06;101726.29;;;18.80;36.61
62237;BME280;69163;48.778;2.308;2023-05-17T03:18:32;101724.25;;;18.67;36.63
62237;BME280;69163;48.778;2.308;2023-05-17T03:20:56;101721.82;;;18.87;36.65
62237;BME280;69163;48.778;2.308;2023-05-17T03:23:22;101722.04;;;18.88;36.68
62237;BME280;69163;48.778;2.308;2023-05-17T03:25:47;101724.70;;;18.35;36.58
62237;BME280;69163;48.778;2.308;2023-05-17T03:28:12;101725.41;;;18.82;36.61
62237;BME280;69163;48.778;2.308;2023-05-17T03:30:38;101725.37;;;18.84;36.45
62237;BME280;69163;48.778;2.308;2023-05-17T03:33:03;101729.39;;;18.65;36.49
62237;BME280;69163;48.778;2.308;2023-05-17T03:35:28;101729.00;;;18.90;36.45
62237;BME280;69163;48.778;2.308;2023-05-17T03:37:54;101728.27;;;19.05;36.43
62237;BME280;69163;48.778;2.308;2023-05-17T03:40:18;101727.73;;;18.77;36.44
62237;BME280;69163;48.778;2.308;2023-05-17T03:42:44;101727.89;;;18.81;36.38
62237;BME280;69163;48.778;2.308;2023-05-17T03:45:10;101727.47;;;18.56;36.37
62237;BME280;69163;48.778;2.308;2023-05-17T03:47:35;101730.13;;;19.08;36.30
62237;BME280;69163;48.778;2.308;2023-05-17T03:50:01;101728.80;;;18.87;36.13
62237;BME280;69163;48.778;2.308;2023-05-17T03:52:26;101726.67;;;18.83;36.13
62237;BME280;69163;48.778;2.308;2023-05-17T03:54:51;101726.67;;;19.08;36.06
62237;BME280;69163;48.778;2.308;2023-05-17T03:57:17;101725.97;;;18.82;35.99
62237;BME280;69163;48.778;2.308;2023-05-17T03:59:41;101734.05;;;18.78;36.03
62237;BME280;69163;48.778;2.308;2023-05-17T04:02:07;101736.27;;;18.74;36.03
62237;BME280;69163;48.778;2.308;2023-05-17T04:04:32;101740.78;;;18.99;35.93
62237;BME280;69163;48.778;2.308;2023-05-17T04:06:57;101743.53;;;18.76;35.92
62237;BME280;69163;48.778;2.308;2023-05-17T04:09:22;101742.59;;;18.48;35.92
62237;BME280;69163;48.778;2.308;2023-05-17T04:11:48;101747.79;;;18.77;35.88
62237;BME280;69163;48.778;2.308;2023-05-17T04:14:13;101750.45;;;18.79;35.79
62237;BME280;69163;48.778;2.308;2023-05-17T04:16:38;101757.16;;;18.30;35.80
62237;BME280;69163;48.778;2.308;2023-05-17T04:19:04;101762.92;;;18.79;35.69
62237;BME280;69163;48.778;2.308;2023-05-17T04:21:34;101764.96;;;18.43;35.78
62237;BME280;69163;48.778;2.308;2023-05-17T04:23:53;101767.36;;;18.91;35.72
62237;BME280;69163;48.778;2.308;2023-05-17T04:26:19;101770.02;;;18.36;35.81
62237;BME280;69163;48.778;2.308;2023-05-17T04:28:45;101777.16;;;18.66;35.75
62237;BME280;69163;48.778;2.308;2023-05-17T04:31:09;101778.54;;;18.68;35.61
62237;BME280;69163;48.778;2.308;2023-05-17T04:33:36;101780.49;;;18.70;35.62
62237;BME280;69163;48.778;2.308;2023-05-17T04:36:01;101784.31;;;18.74;35.57
62237;BME280;69163;48.778;2.308;2023-05-17T04:38:25;101783.45;;;18.65;35.64
62237;BME280;69163;48.778;2.308;2023-05-17T04:40:51;101785.94;;;18.64;35.63
62237;BME280;69163;48.778;2.308;2023-05-17T04:43:16;101789.79;;;18.63;35.60
62237;BME280;69163;48.778;2.308;2023-05-17T04:45:41;101787.53;;;18.86;35.59
62237;BME280;69163;48.778;2.308;2023-05-17T04:48:07;101787.88;;;18.58;35.60
62237;BME280;69163;48.778;2.308;2023-05-17T04:50:32;101783.02;;;18.61;35.53
62237;BME280;69163;48.778;2.308;2023-05-17T04:52:57;101787.03;;;18.80;35.56
62237;BME280;69163;48.778;2.308;2023-05-17T04:55:22;101793.98;;;18.60;35.53
62237;BME280;69163;48.778;2.308;2023-05-17T04:57:47;101793.47;;;18.61;35.45
62237;BME280;69163;48.778;2.308;2023-05-17T05:00:14;101798.04;;;18.58;35.50
62237;BME280;69163;48.778;2.308;2023-05-17T05:02:38;101801.13;;;18.60;35.49
62237;BME280;69163;48.778;2.308;2023-05-17T05:05:05;101804.22;;;18.62;35.42
62237;BME280;69163;48.778;2.308;2023-05-17T05:07:29;101805.23;;;18.58;35.44
62237;BME280;69163;48.778;2.308;2023-05-17T05:09:54;101808.35;;;18.30;35.38
62237;BME280;69163;48.778;2.308;2023-05-17T05:12:19;101817.24;;;18.57;35.39
62237;BME280;69163;48.778;2.308;2023-05-17T05:14:45;101818.25;;;18.62;35.34
62237;BME280;69163;48.778;2.308;2023-05-17T05:17:10;101820.27;;;18.67;35.24
62237;BME280;69163;48.778;2.308;2023-05-17T05:19:34;101822.94;;;18.45;35.20
62237;BME280;69163;48.778;2.308;2023-05-17T05:22:00;101825.71;;;18.86;35.26
62237;BME280;69163;48.778;2.308;2023-05-17T05:24:25;101825.12;;;18.60;35.23
62237;BME280;69163;48.778;2.308;2023-05-17T05:26:50;101826.84;;;18.78;35.30
62237;BME280;69163;48.778;2.308;2023-05-17T05:29:17;101827.30;;;18.57;35.23
62237;BME280;69163;48.778;2.308;2023-05-17T05:31:41;101827.99;;;18.58;35.18
62237;BME280;69163;48.778;2.308;2023-05-17T05:34:06;101832.82;;;18.51;35.25
62237;BME280;69163;48.778;2.308;2023-05-17T05:36:31;101828.54;;;18.59;35.10
62237;BME280;69163;48.778;2.308;2023-05-17T05:38:57;101827.20;;;18.58;35.10
62237;BME280;69163;48.778;2.308;2023-05-17T05:41:22;101833.62;;;18.60;35.08
62237;BME280;69163;48.778;2.308;2023-05-17T05:43:47;101835.03;;;18.55;35.14
62237;BME280;69163;48.778;2.308;2023-05-17T05:46:13;101841.91;;;18.48;35.19
62237;BME280;69163;48.778;2.308;2023-05-17T05:48:38;101845.51;;;18.48;35.14
62237;BME280;69163;48.778;2.308;2023-05-17T05:51:03;101849.05;;;18.72;35.11
62237;BME280;69163;48.778;2.308;2023-05-17T05:53:28;101852.31;;;18.65;35.17
62237;BME280;69163;48.778;2.308;2023-05-17T05:55:53;101851.31;;;18.26;35.06
62237;BME280;69163;48.778;2.308;2023-05-17T05:58:18;101854.73;;;18.35;35.17
62237;BME280;69163;48.778;2.308;2023-05-17T06:00:44;101857.33;;;18.47;35.03
62237;BME280;69163;48.778;2.308;2023-05-17T06:03:09;101858.68;;;18.39;35.09
62237;BME280;69163;48.778;2.308;2023-05-17T06:05:34;101864.32;;;18.69;35.01
62237;BME280;69163;48.778;2.308;2023-05-17T06:07:59;101865.18;;;18.38;35.06
62237;BME280;69163;48.778;2.308;2023-05-17T06:10:24;101866.75;;;18.45;34.98
62237;BME280;69163;48.778;2.308;2023-05-17T06:12:49;101866.75;;;18.60;35.04
62237;BME280;69163;48.778;2.308;2023-05-17T06:15:15;101872.57;;;18.45;34.92
62237;BME280;69163;48.778;2.308;2023-05-17T06:17:40;101875.08;;;18.46;34.89
62237;BME280;69163;48.778;2.308;2023-05-17T06:20:07;101877.41;;;18.83;34.98
62237;BME280;69163;48.778;2.308;2023-05-17T06:22:31;101881.09;;;18.35;34.99
62237;BME280;69163;48.778;2.308;2023-05-17T06:24:55;101886.41;;;18.41;34.92
62237;BME280;69163;48.778;2.308;2023-05-17T06:27:21;101885.19;;;18.69;34.84
62237;BME280;69163;48.778;2.308;2023-05-17T06:29:46;101893.92;;;18.34;34.94
62237;BME280;69163;48.778;2.308;2023-05-17T06:32:11;101891.60;;;18.35;34.92
62237;BME280;69163;48.778;2.308;2023-05-17T06:34:37;101897.53;;;18.33;34.94
62237;BME280;69163;48.778;2.308;2023-05-17T06:37:03;101894.92;;;18.36;34.90
62237;BME280;69163;48.778;2.308;2023-05-17T06:39:27;101893.96;;;18.38;34.87
62237;BME280;69163;48.778;2.308;2023-05-17T06:41:53;101892.21;;;18.57;34.89
62237;BME280;69163;48.778;2.308;2023-05-17T06:44:18;101893.67;;;18.37;34.86
62237;BME280;69163;48.778;2.308;2023-05-17T06:46:43;101890.86;;;18.35;34.85
62237;BME280;69163;48.778;2.308;2023-05-17T06:49:09;101893.04;;;18.42;34.75
62237;BME280;69163;48.778;2.308;2023-05-17T06:51:34;101890.24;;;18.40;34.73
62237;BME280;69163;48.778;2.308;2023-05-17T06:53:59;101891.64;;;18.61;34.72
62237;BME280;69163;48.778;2.308;2023-05-17T06:56:24;101893.22;;;18.37;34.68
62237;BME280;69163;48.778;2.308;2023-05-17T06:58:50;101901.90;;;18.36;34.71
62237;BME280;69163;48.778;2.308;2023-05-17T07:01:15;101903.57;;;18.43;34.58
62237;BME280;69163;48.778;2.308;2023-05-17T07:03:41;101905.66;;;18.39;34.59
62237;BME280;69163;48.778;2.308;2023-05-17T07:06:05;101904.63;;;18.35;34.55
62237;BME280;69163;48.778;2.308;2023-05-17T07:08:31;101907.70;;;18.43;34.42
62237;BME280;69163;48.778;2.308;2023-05-17T07:10:56;101906.75;;;18.16;34.39
62237;BME280;69163;48.778;2.308;2023-05-17T07:13:21;101907.83;;;18.47;34.31
62237;BME280;69163;48.778;2.308;2023-05-17T07:15:47;101909.54;;;18.67;34.32
62237;BME280;69163;48.778;2.308;2023-05-17T07:18:12;101916.81;;;18.37;34.35
62237;BME280;69163;48.778;2.308;2023-05-17T07:20:37;101914.59;;;18.37;34.28
62237;BME280;69163;48.778;2.308;2023-05-17T07:23:02;101916.76;;;18.40;34.22
62237;BME280;69163;48.778;2.308;2023-05-17T07:25:27;101921.46;;;18.49;34.05
62237;BME280;69163;48.778;2.308;2023-05-17T07:27:53;101918.26;;;18.69;34.03
62237;BME280;69163;48.778;2.308;2023-05-17T07:30:19;101918.31;;;18.43;33.98
62237;BME280;69163;48.778;2.308;2023-05-17T07:32:43;101922.50;;;18.49;33.89
62237;BME280;69163;48.778;2.308;2023-05-17T07:35:09;101923.13;;;18.97;33.87
62237;BME280;69163;48.778;2.308;2023-05-17T07:37:34;101928.15;;;18.48;33.84
62237;BME280;69163;48.778;2.308;2023-05-17T07:39:59;101928.88;;;18.47;33.78
62237;BME280;69163;48.778;2.308;2023-05-17T07:42:25;101930.96;;;18.75;33.70
62237;BME280;69163;48.778;2.308;2023-05-17T07:44:50;101936.04;;;18.59;33.57
62237;BME280;69163;48.778;2.308;2023-05-17T07:47:15;101929.66;;;18.51;33.63
62237;BME280;69163;48.778;2.308;2023-05-17T07:49:40;101930.03;;;18.56;33.55
62237;BME280;69163;48.778;2.308;2023-05-17T07:52:06;101929.82;;;18.52;33.55
62237;BME280;69163;48.778;2.308;2023-05-17T07:54:31;101925.69;;;18.79;33.50
62237;BME280;69163;48.778;2.308;2023-05-17T07:56:56;101922.40;;;18.50;33.55
62237;BME280;69163;48.778;2.308;2023-05-17T07:59:22;101925.44;;;18.52;33.57
62237;BME280;69163;48.778;2.308;2023-05-17T08:01:46;101927.78;;;18.77;33.58
62237;BME280;69163;48.778;2.308;2023-05-17T08:04:12;101930.52;;;18.80;33.52
62237;BME280;69163;48.778;2.308;2023-05-17T08:06:37;101928.37;;;18.48;33.61
62237;BME280;69163;48.778;2.308;2023-05-17T08:09:02;101929.66;;;18.78;33.52
62237;BME280;69163;48.778;2.308;2023-05-17T08:11:27;101930.37;;;18.79;33.49
62237;BME280;69163;48.778;2.308;2023-05-17T08:13:52;101929.69;;;18.54;33.47
62237;BME280;69163;48.778;2.308;2023-05-17T08:16:18;101925.14;;;18.56;33.48
62237;BME280;69163;48.778;2.308;2023-05-17T08:18:43;101928.03;;;18.54;33.48
62237;BME280;69163;48.778;2.308;2023-05-17T08:21:08;101927.51;;;18.55;33.44
62237;BME280;69163;48.778;2.308;2023-05-17T08:23:33;101930.23;;;18.84;33.40
62237;BME280;69163;48.778;2.308;2023-05-17T08:25:59;101933.94;;;18.59;33.41
62237;BME280;69163;48.778;2.308;2023-05-17T08:28:23;101934.70;;;18.59;33.42
62237;BME280;69163;48.778;2.308;2023-05-17T08:30:49;101929.87;;;18.62;33.32
62237;BME280;69163;48.778;2.308;2023-05-17T08:33:14;101930.84;;;18.61;33.33
62237;BME280;69163;48.778;2.308;2023-05-17T08:35:39;101930.19;;;18.58;33.37
62237;BME280;69163;48.778;2.308;2023-05-17T08:38:05;101930.32;;;18.82;33.36
62237;BME280;69163;48.778;2.308;2023-05-17T08:40:30;101931.05;;;18.60;33.32
62237;BME280;69163;48.778;2.308;2023-05-17T08:42:55;101931.70;;;18.63;33.27
62237;BME280;69163;48.778;2.308;2023-05-17T08:45:20;101932.14;;;18.52;33.82
62237;BME280;69163;48.778;2.308;2023-05-17T08:47:45;101939.64;;;19.56;34.57
62237;BME280;69163;48.778;2.308;2023-05-17T08:50:11;101936.85;;;19.98;35.00
62237;BME280;69163;48.778;2.308;2023-05-17T08:52:36;101929.55;;;19.93;35.45
62237;BME280;69163;48.778;2.308;2023-05-17T08:55:01;101929.54;;;20.08;35.84
62237;BME280;69163;48.778;2.308;2023-05-17T08:57:27;101930.60;;;20.24;36.09
62237;BME280;69163;48.778;2.308;2023-05-17T08:59:52;101929.01;;;19.68;36.30
62237;BME280;69163;48.778;2.308;2023-05-17T09:02:17;101926.61;;;19.34;36.33
62237;BME280;69163;48.778;2.308;2023-05-17T09:04:42;101923.28;;;19.50;36.62
62237;BME280;69163;48.778;2.308;2023-05-17T09:07:07;101914.08;;;19.54;36.81
62237;BME280;69163;48.778;2.308;2023-05-17T09:09:32;101916.60;;;19.54;36.67
62237;BME280;69163;48.778;2.308;2023-05-17T09:11:57;101916.79;;;19.63;36.98
62237;BME280;69163;48.778;2.308;2023-05-17T09:14:22;101922.81;;;19.66;37.13
62237;BME280;69163;48.778;2.308;2023-05-17T09:16:55;101922.97;;;19.93;37.20
62237;BME280;69163;48.778;2.308;2023-05-17T09:19:15;101917.12;;;19.98;37.02
62237;BME280;69163;48.778;2.308;2023-05-17T09:21:38;101918.24;;;19.95;37.17
62237;BME280;69163;48.778;2.308;2023-05-17T09:24:04;101915.78;;;20.03;37.25
62237;BME280;69163;48.778;2.308;2023-05-17T09:26:37;101910.54;;;19.85;37.45
62237;BME280;69163;48.778;2.308;2023-05-17T09:28:55;101920.63;;;19.47;37.29
62237;BME280;69163;48.778;2.308;2023-05-17T09:31:20;101922.59;;;19.29;37.25
62237;BME280;69163;48.778;2.308;2023-05-17T09:33:45;101924.39;;;19.55;37.19
62237;BME280;69163;48.778;2.308;2023-05-17T09:36:16;101925.26;;;20.01;37.35
62237;BME280;69163;48.778;2.308;2023-05-17T09:38:35;101919.29;;;19.98;37.44
62237;BME280;69163;48.778;2.308;2023-05-17T09:41:00;101909.74;;;20.00;37.40
62237;BME280;69163;48.778;2.308;2023-05-17T09:43:31;101910.80;;;20.02;37.40
62237;BME280;69163;48.778;2.308;2023-05-17T09:45:55;101915.31;;;19.78;37.37
62237;BME280;69163;48.778;2.308;2023-05-17T09:48:17;101914.66;;;20.03;37.28
62237;BME280;69163;48.778;2.308;2023-05-17T09:50:43;101912.05;;;19.76;37.29
62237;BME280;69163;48.778;2.308;2023-05-17T09:53:21;101917.46;;;20.07;37.17
62237;BME280;69163;48.778;2.308;2023-05-17T09:55:32;101922.61;;;20.13;37.09
62237;BME280;69163;48.778;2.308;2023-05-17T09:58:02;101914.90;;;19.61;37.04
62237;BME280;69163;48.778;2.308;2023-05-17T10:00:22;101912.15;;;19.50;37.18
62237;BME280;69163;48.778;2.308;2023-05-17T10:02:49;101922.31;;;20.02;37.13
62237;BME280;69163;48.778;2.308;2023-05-17T10:05:12;101923.68;;;20.13;37.00
62237;BME280;69163;48.778;2.308;2023-05-17T10:07:38;101919.24;;;19.62;37.23
62237;BME280;69163;48.778;2.308;2023-05-17T10:10:04;101912.04;;;20.17;37.30
62237;BME280;69163;48.778;2.308;2023-05-17T10:12:28;101912.98;;;19.88;37.51
62237;BME280;69163;48.778;2.308;2023-05-17T10:14:54;101915.09;;;19.94;37.45
62237;BME280;69163;48.778;2.308;2023-05-17T10:17:19;101916.86;;;20.13;37.59
62237;BME280;69163;48.778;2.308;2023-05-17T10:19:44;101915.32;;;19.90;37.60
62237;BME280;69163;48.778;2.308;2023-05-17T10:22:10;101903.55;;;20.31;37.71
62237;BME280;69163;48.778;2.308;2023-05-17T10:24:35;101908.02;;;19.89;37.63
62237;BME280;69163;48.778;2.308;2023-05-17T10:27:00;101902.16;;;19.61;37.68
62237;BME280;69163;48.778;2.308;2023-05-17T10:29:25;101912.59;;;19.41;37.68
62237;BME280;69163;48.778;2.308;2023-05-17T10:31:50;101913.27;;;19.87;37.68
62237;BME280;69163;48.778;2.308;2023-05-17T10:34:15;101906.07;;;19.88;37.65
62237;BME280;69163;48.778;2.308;2023-05-17T10:36:42;101904.82;;;19.90;37.63
62237;BME280;69163;48.778;2.308;2023-05-17T10:39:06;101903.24;;;20.16;37.56
62237;BME280;69163;48.778;2.308;2023-05-17T10:41:32;101890.15;;;20.17;37.51
62237;BME280;69163;48.778;2.308;2023-05-17T10:43:56;101889.60;;;20.23;37.48
62237;BME280;69163;48.778;2.308;2023-05-17T10:46:22;101886.51;;;20.24;37.43
62237;BME280;69163;48.778;2.308;2023-05-17T10:48:47;101881.94;;;20.19;37.51
62237;BME280;69163;48.778;2.308;2023-05-17T10:51:12;101869.58;;;20.19;37.53
62237;BME280;69163;48.778;2.308;2023-05-17T10:56:02;101888.87;;;19.52;37.45
62237;BME280;69163;48.778;2.308;2023-05-17T10:58:27;101880.07;;;19.78;37.41
62237;BME280;69163;48.778;2.308;2023-05-17T11:00:53;101869.16;;;19.78;37.38
62237;BME280;69163;48.778;2.308;2023-05-17T11:03:18;101865.79;;;20.00;37.40
62237;BME280;69163;48.778;2.308;2023-05-17T11:05:44;101868.43;;;20.23;37.40
62237;BME280;69163;48.778;2.308;2023-05-17T11:08:14;101869.07;;;20.25;37.33
62237;BME280;69163;48.778;2.308;2023-05-17T11:10:35;101868.73;;;20.19;37.38
62237;BME280;69163;48.778;2.308;2023-05-17T11:13:01;101877.96;;;20.23;37.29
62237;BME280;69163;48.778;2.308;2023-05-17T11:15:24;101880.54;;;20.24;37.32
62237;BME280;69163;48.778;2.308;2023-05-17T11:17:50;101875.31;;;20.25;37.30
62237;BME280;69163;48.778;2.308;2023-05-17T11:22:41;101874.96;;;19.83;37.18
62237;BME280;69163;48.778;2.308;2023-05-17T11:25:08;101877.48;;;19.82;37.08
62237;BME280;69163;48.778;2.308;2023-05-17T11:27:37;101868.00;;;20.04;37.06
62237;BME280;69163;48.778;2.308;2023-05-17T11:29:55;101862.46;;;20.08;36.99
62237;BME280;69163;48.778;2.308;2023-05-17T11:32:26;101856.67;;;20.33;36.92
62237;BME280;69163;48.778;2.308;2023-05-17T11:34:51;101852.85;;;19.91;36.85
62237;BME280;69163;48.778;2.308;2023-05-17T11:37:11;101858.50;;;20.29;36.95
62237;BME280;69163;48.778;2.308;2023-05-17T11:39:36;101852.02;;;20.31;36.87
62237;BME280;69163;48.778;2.308;2023-05-17T11:42:01;101856.35;;;20.33;36.86
62237;BME280;69163;48.778;2.308;2023-05-17T11:44:29;101844.40;;;20.31;36.81
62237;BME280;69163;48.778;2.308;2023-05-17T11:47:01;101845.90;;;20.11;35.99
62237;BME280;69163;48.778;2.308;2023-05-17T11:49:17;101845.84;;;19.70;37.02
62237;BME280;69163;48.778;2.308;2023-05-17T11:51:45;101839.35;;;19.50;37.36
62237;BME280;69163;48.778;2.308;2023-05-17T11:54:08;101841.73;;;19.44;37.61
62237;BME280;69163;48.778;2.308;2023-05-17T11:56:34;101835.22;;;19.48;38.36
62237;BME280;69163;48.778;2.308;2023-05-17T11:58:58;101836.46;;;19.95;38.30
62237;BME280;69163;48.778;2.308;2023-05-17T12:01:23;101828.24;;;19.99;38.23
62237;BME280;69163;48.778;2.308;2023-05-17T12:03:54;101829.03;;;20.02;37.72
62237;BME280;69163;48.778;2.308;2023-05-17T12:06:15;101822.37;;;20.31;37.53
62237;BME280;69163;48.778;2.308;2023-05-17T12:08:41;101826.41;;;20.03;37.54
62237;BME280;69163;48.778;2.308;2023-05-17T12:11:05;101826.04;;;20.27;37.51
62237;BME280;69163;48.778;2.308;2023-05-17T12:13:30;101825.00;;;20.25;37.48
62237;BME280;69163;48.778;2.308;2023-05-17T12:15:56;101818.28;;;20.11;37.36
62237;BME280;69163;48.778;2.308;2023-05-17T12:18:19;101817.09;;;20.02;37.36
62237;BME280;69163;48.778;2.308;2023-05-17T12:20:54;101820.65;;;19.97;37.43
62237;BME280;69163;48.778;2.308;2023-05-17T12:23:10;101819.80;;;19.96;37.38
62237;BME280;69163;48.778;2.308;2023-05-17T12:25:35;101812.03;;;19.92;37.34
62237;BME280;69163;48.778;2.308;2023-05-17T12:28:12;101821.52;;;19.66;37.30
62237;BME280;69163;48.778;2.308;2023-05-17T12:30:25;101803.16;;;20.15;37.29
62237;BME280;69163;48.778;2.308;2023-05-17T12:32:51;101812.26;;;19.65;37.32
62237;BME280;69163;48.778;2.308;2023-05-17T12:35:16;101802.06;;;19.43;37.17
62237;BME280;69163;48.778;2.308;2023-05-17T12:37:41;101806.35;;;19.59;36.79
62237;BME280;69163;48.778;2.308;2023-05-17T12:40:08;101808.41;;;19.58;36.87
62237;BME280;69163;48.778;2.308;2023-05-17T12:42:32;101814.29;;;19.51;36.85